Time;durP1;ratioP1;P1;durP2;ratioP2;P2;SDS_P1;SDS_P2;PMS_P1;PMS_P2;Temp;Humidity;BMP_temperature;BMP_pressure;BME280_temperature;BME280_humidity;BME280_pressure;Samples;Min_cycle;Max_cycle;Signal;HPM_P1;HPM_P2
2023/08/05 00:00:24;;;;;;;;;;;19.50;70.50;;;;;;5093100;28;19920;-65
2023/08/05 00:02:49;;;;;;;;;;;19.50;70.50;;;;;;5091842;28;19991;-66
2023/08/05 00:05:15;;;;;;;;;;;19.50;70.50;;;;;;5092923;28;19927;-65
2023/08/05 00:07:40;;;;;;;;;;;19.50;70.50;;;;;;5091570;28;19959;-70
2023/08/05 00:10:06;;;;;;;;;;;19.50;70.50;;;;;;5092818;28;19927;-66
2023/08/05 00:12:31;;;;;;;;;;;19.50;70.50;;;;;;5091512;28;20038;-65
2023/08/05 00:14:57;;;;;;;;;;;19.50;70.50;;;;;;5092604;28;19920;-66
2023/08/05 00:17:23;;;;;;;;;;;19.50;70.50;;;;;;5092819;28;19924;-66
2023/08/05 00:19:50;;;;;;;;;;;19.40;70.50;;;;;;5092792;28;20421;-65
2023/08/05 00:22:15;;;;;;;;;;;19.40;70.50;;;;;;5091333;28;19960;-65
2023/08/05 00:24:41;;;;;;;;;;;19.40;70.50;;;;;;5091229;28;20040;-65
2023/08/05 00:27:07;;;;;;;;;;;19.40;70.40;;;;;;5092589;28;19920;-66
2023/08/05 00:29:32;;;;;;;;;;;19.40;70.40;;;;;;5091506;28;20003;-66
2023/08/05 00:31:58;;;;;;;;;;;19.40;70.40;;;;;;5091199;28;20010;-66
2023/08/05 00:34:23;;;;;;;;;;;19.40;70.40;;;;;;5091570;28;20319;-66
2023/08/05 00:36:49;;;;;;;;;;;19.40;70.40;;;;;;5092227;28;19931;-65
2023/08/05 00:39:14;;;;;;;;;;;19.40;70.40;;;;;;5092637;28;19955;-66
2023/08/05 00:41:40;;;;;;;;;;;19.40;70.40;;;;;;5091380;28;19952;-65
2023/08/05 00:44:06;;;;;;;;;;;19.40;70.40;;;;;;5092736;28;19920;-65
2023/08/05 00:46:31;;;;;;;;;;;19.40;70.40;;;;;;5091106;28;19920;-65
2023/08/05 00:48:57;;;;;;;;;;;19.40;70.40;;;;;;5091134;28;19963;-66
2023/08/05 00:51:23;;;;;;;;;;;19.40;70.40;;;;;;5091405;28;19920;-66
2023/08/05 00:53:48;;;;;;;;;;;19.40;70.40;;;;;;5091084;28;19924;-65
2023/08/05 00:56:15;;;;;;;;;;;19.40;70.40;;;;;;5090974;28;19939;-65
2023/08/05 00:58:40;;;;;;;;;;;19.40;70.40;;;;;;5091003;28;20015;-66
2023/08/05 01:01:06;;;;;;;;;;;19.30;70.30;;;;;;5091099;28;20421;-65
2023/08/05 01:03:31;;;;;;;;;;;19.40;70.40;;;;;;5092222;28;20002;-65
2023/08/05 01:05:58;;;;;;;;;;;19.40;70.40;;;;;;5091147;28;19943;-65
2023/08/05 01:08:23;;;;;;;;;;;19.40;70.40;;;;;;5091201;28;19989;-66
2023/08/05 01:10:49;;;;;;;;;;;19.40;70.40;;;;;;5091229;28;19920;-66
2023/08/05 01:13:15;;;;;;;;;;;19.40;70.40;;;;;;5090829;28;19931;-66
2023/08/05 01:15:41;;;;;;;;;;;19.30;70.30;;;;;;5092102;28;19945;-66
2023/08/05 01:18:08;;;;;;;;;;;19.30;70.40;;;;;;5090745;28;19931;-65
2023/08/05 01:20:38;;;;;;;;;;;19.30;70.40;;;;;;5092124;28;20014;-65
2023/08/05 01:23:07;;;;;;;;;;;19.30;70.40;;;;;;5091044;28;19943;-65
2023/08/05 01:25:34;;;;;;;;;;;19.30;70.40;;;;;;5095940;28;19920;-65
2023/08/05 01:28:00;;;;;;;;;;;19.30;70.40;;;;;;5095840;28;19946;-65
2023/08/05 01:30:26;;;;;;;;;;;19.30;70.40;;;;;;5094708;28;19920;-65
2023/08/05 01:32:52;;;;;;;;;;;19.30;70.40;;;;;;5095718;28;20418;-65
2023/08/05 01:35:20;;;;;;;;;;;19.30;70.40;;;;;;5094733;28;19943;-65
2023/08/05 01:37:46;;;;;;;;;;;19.30;70.40;;;;;;5094044;28;19963;-65
2023/08/05 01:40:12;;;;;;;;;;;19.30;70.40;;;;;;5094419;28;19920;-65
2023/08/05 01:42:38;;;;;;;;;;;19.30;70.40;;;;;;5094521;28;19989;-65
2023/08/05 01:45:03;;;;;;;;;;;19.30;70.40;;;;;;5094239;28;19927;-66
2023/08/05 01:47:29;;;;;;;;;;;19.30;70.40;;;;;;5094144;28;19920;-66
2023/08/05 01:49:54;;;;;;;;;;;19.30;70.40;;;;;;5094488;28;19924;-65
2023/08/05 01:52:20;;;;;;;;;;;19.30;70.40;;;;;;5094021;28;20042;-65
2023/08/05 01:54:45;;;;;;;;;;;19.20;70.30;;;;;;5094063;28;19924;-65
2023/08/05 01:57:11;;;;;;;;;;;19.20;70.40;;;;;;5094191;28;20279;-65
2023/08/05 01:59:36;;;;;;;;;;;19.20;70.30;;;;;;5094212;28;19927;-65
2023/08/05 02:02:01;;;;;;;;;;;19.20;70.30;;;;;;5093843;28;20007;-66
2023/08/05 02:04:27;;;;;;;;;;;19.20;70.30;;;;;;5094169;28;20179;-66
2023/08/05 02:06:52;;;;;;;;;;;19.20;70.40;;;;;;5093828;28;19928;-66
2023/08/05 02:09:18;;;;;;;;;;;19.20;70.30;;;;;;5095251;28;19927;-65
2023/08/05 02:11:43;;;;;;;;;;;19.20;70.40;;;;;;5093855;28;19933;-66
2023/08/05 02:14:09;;;;;;;;;;;19.20;70.40;;;;;;5093636;28;19926;-65
2023/08/05 02:16:34;;;;;;;;;;;19.20;70.40;;;;;;5093771;28;19946;-65
2023/08/05 02:19:00;;;;;;;;;;;19.20;70.40;;;;;;5093818;28;19924;-65
2023/08/05 02:21:26;;;;;;;;;;;19.20;70.40;;;;;;5093887;28;20010;-65
2023/08/05 02:23:52;;;;;;;;;;;19.20;70.40;;;;;;5093799;28;19927;-65
2023/08/05 02:26:17;;;;;;;;;;;19.20;70.40;;;;;;5094862;28;19943;-66
2023/08/05 02:28:44;;;;;;;;;;;19.20;70.40;;;;;;5093621;28;20390;-65
2023/08/05 02:31:09;;;;;;;;;;;19.20;70.40;;;;;;5094641;28;20390;-65
2023/08/05 02:33:35;;;;;;;;;;;19.20;70.30;;;;;;5093531;28;19921;-65
2023/08/05 02:36:00;;;;;;;;;;;19.20;70.40;;;;;;5093435;28;19920;-66
2023/08/05 02:38:26;;;;;;;;;;;19.20;70.40;;;;;;5092934;28;19931;-65
2023/08/05 02:40:52;;;;;;;;;;;19.20;70.40;;;;;;5094648;28;20007;-65
2023/08/05 02:43:17;;;;;;;;;;;19.10;70.40;;;;;;5093407;28;19934;-66
2023/08/05 02:45:43;;;;;;;;;;;19.10;70.40;;;;;;5093061;28;19920;-66
2023/08/05 02:48:08;;;;;;;;;;;19.10;70.40;;;;;;5093378;28;20267;-65
2023/08/05 02:50:34;;;;;;;;;;;19.10;70.40;;;;;;5092952;28;19920;-65
2023/08/05 02:53:00;;;;;;;;;;;19.10;71.10;;;;;;5093263;28;19963;-65
2023/08/05 02:55:27;;;;;;;;;;;19.10;70.40;;;;;;5093151;28;20338;-65
2023/08/05 02:57:52;;;;;;;;;;;19.10;70.40;;;;;;5094120;28;20007;-66
2023/08/05 03:00:18;;;;;;;;;;;19.20;70.40;;;;;;5094086;28;20019;-65
2023/08/05 03:02:43;;;;;;;;;;;19.10;70.40;;;;;;5091888;28;19919;-65
2023/08/05 03:05:09;;;;;;;;;;;19.10;70.40;;;;;;5092732;28;19972;-65
2023/08/05 03:07:34;;;;;;;;;;;19.10;70.40;;;;;;5092975;28;19962;-65
2023/08/05 03:10:00;;;;;;;;;;;19.10;70.40;;;;;;5093990;28;20014;-65
2023/08/05 03:12:25;;;;;;;;;;;19.10;70.40;;;;;;5092893;28;19920;-66
2023/08/05 03:14:51;;;;;;;;;;;19.10;70.40;;;;;;5092852;28;19920;-66
2023/08/05 03:17:17;;;;;;;;;;;19.10;70.40;;;;;;5092350;28;20443;-66
2023/08/05 03:19:42;;;;;;;;;;;19.10;70.40;;;;;;5093596;28;19920;-65
2023/08/05 03:22:07;;;;;;;;;;;19.10;70.40;;;;;;5126713;27;20405;-65
2023/08/05 03:24:33;;;;;;;;;;;19.10;70.40;;;;;;5093607;28;20014;-65
2023/08/05 03:26:58;;;;;;;;;;;19.10;70.40;;;;;;5093463;28;20405;-66
2023/08/05 03:29:24;;;;;;;;;;;19.10;70.40;;;;;;5092466;28;19928;-69
2023/08/05 03:31:49;;;;;;;;;;;19.10;70.40;;;;;;5092118;28;20015;-65
2023/08/05 03:34:16;;;;;;;;;;;19.10;70.40;;;;;;5092389;28;19920;-66
2023/08/05 03:36:41;;;;;;;;;;;19.10;70.40;;;;;;5091892;28;20015;-65
2023/08/05 03:39:07;;;;;;;;;;;19.00;70.30;;;;;;5092063;28;20031;-65
2023/08/05 03:41:33;;;;;;;;;;;19.10;70.40;;;;;;5091879;28;19923;-65
2023/08/05 03:44:01;;;;;;;;;;;19.10;70.40;;;;;;5091935;28;20379;-66
2023/08/05 03:46:26;;;;;;;;;;;19.10;70.40;;;;;;5091646;28;19982;-66
2023/08/05 03:48:52;;;;;;;;;;;19.10;70.40;;;;;;5092211;28;20382;-66
2023/08/05 03:51:17;;;;;;;;;;;19.10;70.30;;;;;;5091654;28;19927;-65
2023/08/05 03:53:43;;;;;;;;;;;19.00;70.30;;;;;;5093236;28;20018;-65
2023/08/05 03:56:08;;;;;;;;;;;19.00;70.30;;;;;;5092048;28;20317;-66
2023/08/05 03:58:34;;;;;;;;;;;19.10;70.40;;;;;;5091565;28;19931;-65
2023/08/05 04:01:01;;;;;;;;;;;19.10;70.40;;;;;;5092988;28;19928;-66
2023/08/05 04:03:28;;;;;;;;;;;19.00;70.30;;;;;;5091733;28;19920;-65
2023/08/05 04:05:54;;;;;;;;;;;19.00;70.30;;;;;;5090705;28;20287;-73
2023/08/05 04:08:20;;;;;;;;;;;19.10;70.40;;;;;;5091750;28;19920;-66
2023/08/05 04:10:46;;;;;;;;;;;19.00;70.30;;;;;;5091886;28;19934;-66
2023/08/05 04:13:11;;;;;;;;;;;19.10;70.40;;;;;;5092936;28;19942;-66
2023/08/05 04:15:37;;;;;;;;;;;19.00;70.30;;;;;;5091823;28;19920;-65
2023/08/05 04:18:04;;;;;;;;;;;19.00;70.30;;;;;;5091245;28;19927;-66
2023/08/05 04:20:30;;;;;;;;;;;19.00;70.30;;;;;;5092599;28;19977;-66
2023/08/05 04:22:56;;;;;;;;;;;19.00;70.30;;;;;;5092791;28;20370;-65
2023/08/05 04:25:22;;;;;;;;;;;19.00;70.30;;;;;;5091649;28;19920;-65
2023/08/05 04:27:47;;;;;;;;;;;19.00;70.30;;;;;;5091241;28;20447;-65
2023/08/05 04:30:13;;;;;;;;;;;19.00;70.20;;;;;;5091314;28;19920;-65
2023/08/05 04:32:39;;;;;;;;;;;19.00;70.20;;;;;;5092512;28;19920;-65
2023/08/05 04:35:04;;;;;;;;;;;19.00;70.20;;;;;;5091546;28;19931;-65
2023/08/05 04:37:31;;;;;;;;;;;19.00;70.20;;;;;;5091029;28;19924;-66
2023/08/05 04:39:56;;;;;;;;;;;19.00;70.20;;;;;;5092397;28;20391;-65
2023/08/05 04:42:22;;;;;;;;;;;19.00;70.20;;;;;;5091103;28;19927;-65
2023/08/05 04:44:48;;;;;;;;;;;19.00;70.30;;;;;;5091529;28;19971;-65
2023/08/05 04:47:13;;;;;;;;;;;19.00;70.20;;;;;;5091173;28;19927;-65
2023/08/05 04:49:41;;;;;;;;;;;19.00;70.20;;;;;;5092314;28;19920;-65
2023/08/05 04:52:07;;;;;;;;;;;19.00;70.20;;;;;;5092337;28;19988;-65
2023/08/05 04:54:40;;;;;;;;;;;19.00;70.20;;;;;;5091020;28;20382;-66
2023/08/05 04:57:06;;;;;;;;;;;19.00;70.20;;;;;;5091201;28;19950;-66
2023/08/05 04:59:32;;;;;;;;;;;19.00;70.20;;;;;;5093696;28;19920;-65
2023/08/05 05:01:57;;;;;;;;;;;19.00;70.20;;;;;;5095371;28;19920;-66
2023/08/05 05:04:23;;;;;;;;;;;19.00;70.20;;;;;;5095323;28;20375;-65
2023/08/05 05:06:49;;;;;;;;;;;19.00;70.20;;;;;;5095255;28;20306;-65
2023/08/05 05:09:14;;;;;;;;;;;19.00;70.20;;;;;;5095111;28;19966;-65
2023/08/05 05:11:40;;;;;;;;;;;19.00;70.20;;;;;;5096278;28;19928;-65
2023/08/05 05:14:06;;;;;;;;;;;19.00;70.10;;;;;;5095075;28;19920;-65
2023/08/05 05:16:32;;;;;;;;;;;19.00;70.10;;;;;;5096553;28;19965;-66
2023/08/05 05:18:57;;;;;;;;;;;19.00;70.10;;;;;;5095019;28;19921;-65
2023/08/05 05:21:23;;;;;;;;;;;19.00;70.10;;;;;;5094581;28;19927;-65
2023/08/05 05:23:48;;;;;;;;;;;19.00;70.10;;;;;;5096256;28;19920;-65
2023/08/05 05:26:14;;;;;;;;;;;19.00;70.20;;;;;;5094594;28;20054;-66
2023/08/05 05:28:39;;;;;;;;;;;19.00;70.10;;;;;;5096013;28;19927;-65
2023/08/05 05:31:05;;;;;;;;;;;19.00;70.10;;;;;;5094823;28;19951;-66
2023/08/05 05:33:30;;;;;;;;;;;19.00;70.10;;;;;;5094515;28;20379;-65
2023/08/05 05:35:56;;;;;;;;;;;19.00;70.10;;;;;;5095725;28;19928;-65
2023/08/05 05:38:21;;;;;;;;;;;19.00;70.10;;;;;;5094106;28;19928;-66
2023/08/05 05:40:47;;;;;;;;;;;19.00;70.10;;;;;;5095776;28;19920;-66
2023/08/05 05:43:12;;;;;;;;;;;19.00;70.10;;;;;;5094632;28;19920;-65
2023/08/05 05:45:39;;;;;;;;;;;19.00;70.10;;;;;;5095492;28;19927;-65
2023/08/05 05:48:05;;;;;;;;;;;19.00;70.80;;;;;;5095620;28;20019;-66
2023/08/05 05:50:31;;;;;;;;;;;19.00;70.10;;;;;;5095419;28;19964;-66
2023/08/05 05:52:56;;;;;;;;;;;19.00;70.10;;;;;;5094047;28;19920;-66
2023/08/05 05:55:22;;;;;;;;;;;19.00;70.10;;;;;;5094075;28;19981;-65
2023/08/05 05:57:48;;;;;;;;;;;18.90;70.10;;;;;;5095216;28;19976;-65
2023/08/05 06:00:14;;;;;;;;;;;18.90;70.10;;;;;;5094055;28;19924;-65
2023/08/05 06:02:40;;;;;;;;;;;19.00;70.10;;;;;;5094100;28;19935;-66
2023/08/05 06:05:07;;;;;;;;;;;19.00;70.10;;;;;;5093912;28;19945;-65
2023/08/05 06:07:32;;;;;;;;;;;18.90;70.10;;;;;;5093815;28;19920;-65
2023/08/05 06:09:57;;;;;;;;;;;19.00;70.10;;;;;;5093635;28;20286;-65
2023/08/05 06:12:27;;;;;;;;;;;19.00;70.10;;;;;;5095181;28;19920;-65
2023/08/05 06:14:53;;;;;;;;;;;19.00;70.10;;;;;;5095142;28;19926;-65
2023/08/05 06:17:18;;;;;;;;;;;19.00;70.10;;;;;;5093729;28;19924;-66
2023/08/05 06:19:44;;;;;;;;;;;18.90;70.10;;;;;;5093842;28;19928;-65
2023/08/05 06:22:09;;;;;;;;;;;19.00;70.10;;;;;;5093463;28;20015;-65
2023/08/05 06:24:35;;;;;;;;;;;19.00;70.10;;;;;;5093734;28;19969;-65
2023/08/05 06:27:00;;;;;;;;;;;19.00;70.10;;;;;;5093392;28;20010;-65
2023/08/05 06:29:26;;;;;;;;;;;19.00;70.10;;;;;;5093713;28;19969;-65
2023/08/05 06:31:52;;;;;;;;;;;19.00;70.10;;;;;;5093317;28;19920;-65
2023/08/05 06:34:20;;;;;;;;;;;19.00;70.10;;;;;;5093384;28;20032;-65
2023/08/05 06:36:45;;;;;;;;;;;19.00;70.10;;;;;;5092942;28;19924;-65
2023/08/05 06:39:11;;;;;;;;;;;19.00;70.10;;;;;;5094503;28;20042;-65
2023/08/05 06:41:36;;;;;;;;;;;19.00;70.10;;;;;;5094387;28;19942;-65
2023/08/05 06:44:02;;;;;;;;;;;19.00;70.10;;;;;;5093068;28;19962;-65
2023/08/05 06:46:27;;;;;;;;;;;19.00;70.10;;;;;;5093112;28;19931;-65
2023/08/05 06:48:53;;;;;;;;;;;19.00;70.10;;;;;;5093289;28;20023;-65
2023/08/05 06:51:18;;;;;;;;;;;19.00;70.10;;;;;;5093004;28;19920;-65
2023/08/05 06:53:44;;;;;;;;;;;19.00;70.10;;;;;;5093115;28;19943;-65
2023/08/05 06:56:09;;;;;;;;;;;19.00;70.10;;;;;;5092902;28;20005;-65
2023/08/05 06:58:35;;;;;;;;;;;19.00;70.10;;;;;;5094135;28;19920;-65
2023/08/05 07:01:00;;;;;;;;;;;19.00;70.10;;;;;;5093122;28;19928;-71
2023/08/05 07:03:26;;;;;;;;;;;19.00;70.10;;;;;;5092911;28;19927;-66
2023/08/05 07:05:55;;;;;;;;;;;19.00;70.10;;;;;;5094018;28;19920;-66
2023/08/05 07:08:22;;;;;;;;;;;19.00;70.10;;;;;;5092913;28;19920;-65
2023/08/05 07:10:55;;;;;;;;;;;19.00;70.10;;;;;;5092867;28;19927;-66
2023/08/05 07:13:21;;;;;;;;;;;19.00;70.10;;;;;;5092472;28;19926;-65
2023/08/05 07:15:46;;;;;;;;;;;19.00;70.10;;;;;;5093007;28;19920;-66
2023/08/05 07:18:12;;;;;;;;;;;19.00;70.10;;;;;;5092249;28;19927;-66
2023/08/05 07:20:39;;;;;;;;;;;19.00;70.10;;;;;;5092466;28;20376;-65
2023/08/05 07:23:05;;;;;;;;;;;19.00;70.10;;;;;;5091882;28;19924;-66
2023/08/05 07:25:30;;;;;;;;;;;19.00;70.10;;;;;;5093414;28;19920;-65
2023/08/05 07:27:56;;;;;;;;;;;19.00;70.10;;;;;;5092254;28;19934;-65
2023/08/05 07:30:21;;;;;;;;;;;19.00;70.10;;;;;;5092399;28;19976;-66
2023/08/05 07:32:47;;;;;;;;;;;19.00;70.10;;;;;;5092217;28;20382;-65
2023/08/05 07:35:14;;;;;;;;;;;19.00;70.10;;;;;;5093487;28;19924;-65
2023/08/05 07:37:42;;;;;;;;;;;19.00;70.10;;;;;;5091861;28;19924;-66
2023/08/05 07:40:12;;;;;;;;;;;19.00;70.10;;;;;;5093214;28;20379;-66
2023/08/05 07:42:40;;;;;;;;;;;19.00;70.10;;;;;;5091931;28;20383;-65
2023/08/05 07:45:10;;;;;;;;;;;19.00;70.10;;;;;;5091963;28;19926;-65
2023/08/05 07:47:40;;;;;;;;;;;19.00;70.10;;;;;;5091947;28;20091;-65
2023/08/05 07:50:07;;;;;;;;;;;19.00;70.10;;;;;;5092182;28;19920;-66
2023/08/05 07:52:33;;;;;;;;;;;19.00;70.00;;;;;;5092065;28;19920;-65
2023/08/05 07:54:59;;;;;;;;;;;19.00;70.00;;;;;;5092994;28;19926;-65
2023/08/05 07:57:25;;;;;;;;;;;19.00;70.10;;;;;;5091903;28;20379;-65
2023/08/05 07:59:52;;;;;;;;;;;19.10;70.10;;;;;;5091769;28;19945;-66
2023/08/05 08:02:17;;;;;;;;;;;19.00;70.00;;;;;;5091661;28;19969;-66
2023/08/05 08:04:44;;;;;;;;;;;19.00;70.00;;;;;;5091918;28;19924;-65
2023/08/05 08:07:10;;;;;;;;;;;19.10;70.00;;;;;;5092885;28;19946;-65
2023/08/05 08:09:35;;;;;;;;;;;19.10;70.00;;;;;;5092582;28;19920;-65
2023/08/05 08:12:01;;;;;;;;;;;19.10;70.00;;;;;;5091680;28;20325;-65
2023/08/05 08:14:26;;;;;;;;;;;19.10;70.00;;;;;;5091506;28;19920;-66
2023/08/05 08:16:52;;;;;;;;;;;19.10;70.00;;;;;;5092632;28;19920;-65
2023/08/05 08:19:18;;;;;;;;;;;19.00;69.90;;;;;;5091469;28;19924;-65
2023/08/05 08:21:45;;;;;;;;;;;19.10;70.00;;;;;;5091370;28;19928;-65
2023/08/05 08:24:10;;;;;;;;;;;19.10;70.00;;;;;;5091710;28;20335;-65
2023/08/05 08:26:36;;;;;;;;;;;19.10;69.90;;;;;;5092815;28;19960;-66
2023/08/05 08:29:02;;;;;;;;;;;19.10;69.80;;;;;;5091365;28;19931;-70
2023/08/05 08:31:30;;;;;;;;;;;19.10;69.80;;;;;;5092533;28;19928;-65
2023/08/05 08:33:56;;;;;;;;;;;19.10;69.70;;;;;;5091407;28;19926;-70
2023/08/05 08:36:22;;;;;;;;;;;19.10;69.70;;;;;;5090997;28;20409;-70
2023/08/05 08:38:47;;;;;;;;;;;19.10;69.70;;;;;;5091122;28;19928;-65
2023/08/05 08:41:13;;;;;;;;;;;19.10;69.70;;;;;;5091656;28;19924;-65
2023/08/05 08:43:39;;;;;;;;;;;19.10;69.60;;;;;;5092429;28;19920;-65
2023/08/05 08:46:05;;;;;;;;;;;19.10;69.70;;;;;;5092375;28;19924;-66
2023/08/05 08:48:32;;;;;;;;;;;19.10;69.60;;;;;;5091150;28;19927;-66
2023/08/05 08:50:58;;;;;;;;;;;19.10;69.60;;;;;;5091441;28;19920;-65
2023/08/05 08:53:23;;;;;;;;;;;19.10;69.60;;;;;;5091014;28;19947;-66
2023/08/05 08:55:49;;;;;;;;;;;19.10;69.60;;;;;;5091429;28;20119;-65
2023/08/05 08:58:15;;;;;;;;;;;19.10;69.60;;;;;;5090864;28;20298;-65
2023/08/05 09:00:40;;;;;;;;;;;19.10;69.60;;;;;;5091376;28;19920;-65
2023/08/05 09:03:06;;;;;;;;;;;19.10;69.60;;;;;;5092152;28;19920;-65
2023/08/05 09:05:39;;;;;;;;;;;19.10;69.60;;;;;;5092282;28;19920;-70
2023/08/05 09:08:05;;;;;;;;;;;19.10;69.50;;;;;;5091198;28;19924;-65
2023/08/05 09:10:30;;;;;;;;;;;19.10;69.50;;;;;;5091441;28;20042;-65
2023/08/05 09:12:57;;;;;;;;;;;19.10;70.20;;;;;;5090808;28;20374;-65
2023/08/05 09:15:30;;;;;;;;;;;19.10;69.50;;;;;;5091148;28;20162;-66
2023/08/05 09:17:56;;;;;;;;;;;19.10;69.50;;;;;;5090722;28;19931;-65
2023/08/05 09:20:24;;;;;;;;;;;19.10;69.50;;;;;;5091158;28;19920;-65
2023/08/05 09:22:54;;;;;;;;;;;19.10;69.50;;;;;;5090999;28;19940;-65
2023/08/05 09:25:20;;;;;;;;;;;19.10;69.50;;;;;;5091096;28;19923;-66
2023/08/05 09:27:46;;;;;;;;;;;19.10;70.20;;;;;;5092132;28;20015;-66
2023/08/05 09:30:14;;;;;;;;;;;19.10;69.50;;;;;;5091927;28;20396;-65
2023/08/05 09:32:42;;;;;;;;;;;19.10;69.40;;;;;;5090631;28;20436;-65
2023/08/05 09:35:09;;;;;;;;;;;19.20;69.40;;;;;;5091071;28;19920;-65
2023/08/05 09:37:36;;;;;;;;;;;19.20;69.50;;;;;;5091549;28;19950;-65
2023/08/05 09:40:05;;;;;;;;;;;19.20;69.50;;;;;;5091031;28;20184;-66
2023/08/05 09:42:31;;;;;;;;;;;19.20;69.50;;;;;;5090854;28;20371;-65
2023/08/05 09:44:58;;;;;;;;;;;19.20;69.40;;;;;;5093245;28;19927;-66
2023/08/05 09:47:25;;;;;;;;;;;19.20;69.50;;;;;;5094587;28;19920;-72
2023/08/05 09:49:51;;;;;;;;;;;19.20;69.40;;;;;;5094253;28;19920;-70
2023/08/05 09:52:18;;;;;;;;;;;19.20;69.40;;;;;;5095505;28;19927;-65
2023/08/05 09:54:50;;;;;;;;;;;19.20;69.40;;;;;;5094606;28;19919;-65
2023/08/05 09:57:17;;;;;;;;;;;19.20;69.40;;;;;;5094020;28;20007;-65
2023/08/05 09:59:42;;;;;;;;;;;19.20;69.40;;;;;;5095371;28;19945;-65
2023/08/05 10:02:11;;;;;;;;;;;19.20;69.40;;;;;;5094283;28;20383;-65
2023/08/05 10:04:38;;;;;;;;;;;19.20;69.40;;;;;;5095360;28;19920;-66
2023/08/05 10:07:03;;;;;;;;;;;19.30;69.30;;;;;;5095146;28;20284;-65
2023/08/05 10:09:29;;;;;;;;;;;19.20;69.30;;;;;;5094075;28;19920;-65
2023/08/05 10:11:55;;;;;;;;;;;19.20;69.30;;;;;;5093818;28;19931;-65
2023/08/05 10:14:20;;;;;;;;;;;19.30;69.30;;;;;;5094072;28;19927;-65
2023/08/05 10:16:46;;;;;;;;;;;19.30;69.40;;;;;;5093617;28;19969;-65
2023/08/05 10:19:11;;;;;;;;;;;19.20;69.30;;;;;;5094139;28;20012;-65
2023/08/05 10:21:37;;;;;;;;;;;19.30;69.40;;;;;;5094877;28;19920;-65
2023/08/05 10:24:03;;;;;;;;;;;19.30;69.40;;;;;;5094774;28;19931;-65
2023/08/05 10:26:45;;;;;;;;;;;19.30;69.30;;;;;;5093822;28;19927;-65
2023/08/05 10:29:26;;;;;;;;;;;19.30;69.40;;;;;;5093484;28;19924;-65
2023/08/05 10:32:07;;;;;;;;;;;19.30;69.50;;;;;;5093777;28;19920;-65
2023/08/05 10:34:32;;;;;;;;;;;19.30;69.50;;;;;;5093622;28;19924;-66
2023/08/05 10:36:57;;;;;;;;;;;19.30;69.50;;;;;;5093308;28;20435;-67
2023/08/05 10:42:35;;;;;;;;;;;19.30;69.60;;;;;;5130837;27;19912;-66
2023/08/05 10:45:03;;;;;;;;;;;19.30;69.70;;;;;;5129416;28;19920;-66
2023/08/05 10:47:29;;;;;;;;;;;19.30;69.70;;;;;;5129678;28;20012;-65
2023/08/05 10:49:55;;;;;;;;;;;19.30;69.80;;;;;;5129429;28;20011;-65
2023/08/05 10:52:21;;;;;;;;;;;19.30;69.70;;;;;;5130845;27;20489;-65
2023/08/05 10:54:47;;;;;;;;;;;19.30;69.80;;;;;;5129557;28;19926;-66
2023/08/05 10:57:32;;;;;;;;;;;19.30;69.70;;;;;;5129231;28;19964;-65
2023/08/05 10:59:59;;;;;;;;;;;19.30;69.80;;;;;;5129247;28;19919;-65
2023/08/05 11:02:25;;;;;;;;;;;19.30;69.90;;;;;;5127183;28;20014;-66
2023/08/05 11:04:51;;;;;;;;;;;19.30;69.90;;;;;;5128255;28;20010;-67
2023/08/05 11:07:16;;;;;;;;;;;19.30;70.10;;;;;;5127871;28;20417;-66
2023/08/05 11:09:43;;;;;;;;;;;19.40;70.60;;;;;;5128907;28;20026;-66
2023/08/05 11:12:09;;;;;;;;;;;19.40;70.70;;;;;;5129203;28;20010;-65
2023/08/05 11:14:36;;;;;;;;;;;19.50;70.80;;;;;;5128859;28;20422;-66
2023/08/05 11:17:02;;;;;;;;;;;19.60;70.90;;;;;;5129051;28;20353;-64
2023/08/05 11:19:28;;;;;;;;;;;19.60;70.90;;;;;;5129140;28;20435;-66
2023/08/05 11:21:53;;;;;;;;;;;19.60;70.90;;;;;;5127822;28;19924;-66
2023/08/05 11:24:19;;;;;;;;;;;19.70;71.00;;;;;;5128827;28;19939;-65
2023/08/05 11:26:46;;;;;;;;;;;19.80;70.80;;;;;;5128190;28;19920;-67
2023/08/05 11:29:13;;;;;;;;;;;19.80;70.80;;;;;;5128419;28;19920;-67
2023/08/05 11:31:48;;;;;;;;;;;19.80;70.90;;;;;;5128512;28;19954;-65
2023/08/05 11:34:19;;;;;;;;;;;19.80;70.70;;;;;;5129855;27;19920;-65
2023/08/05 11:36:53;;;;;;;;;;;19.90;70.50;;;;;;5128013;28;20282;-65
2023/08/05 11:39:23;;;;;;;;;;;19.80;70.40;;;;;;5162981;27;19974;-66
2023/08/05 11:41:49;;;;;;;;;;;19.80;70.40;;;;;;5114222;28;19931;-65
2023/08/05 11:44:18;;;;;;;;;;;19.80;70.50;;;;;;5110073;28;19919;-65
2023/08/05 11:46:43;;;;;;;;;;;19.70;70.50;;;;;;5111247;28;19961;-66
2023/08/05 11:49:10;;;;;;;;;;;19.80;70.60;;;;;;5129534;28;20004;-66
2023/08/05 11:51:51;;;;;;;;;;;19.70;70.70;;;;;;5109336;28;19952;-66
2023/08/05 11:54:32;;;;;;;;;;;19.70;70.80;;;;;;5097368;28;19919;-66
2023/08/05 11:56:58;;;;;;;;;;;19.70;70.90;;;;;;5097774;28;19920;-66
2023/08/05 11:59:41;;;;;;;;;;;19.70;71.00;;;;;;5097296;28;19926;-66
2023/08/05 12:02:09;;;;;;;;;;;19.60;70.90;;;;;;5097269;28;19924;-66
2023/08/05 12:04:50;;;;;;;;;;;19.60;71.00;;;;;;5097469;28;19943;-66
2023/08/05 12:07:17;;;;;;;;;;;19.60;71.00;;;;;;5097656;28;19927;-65
2023/08/05 12:09:43;;;;;;;;;;;19.60;71.10;;;;;;5097178;28;19920;-65
2023/08/05 12:12:13;;;;;;;;;;;19.60;71.10;;;;;;5115579;28;19920;-66
2023/08/05 12:14:39;;;;;;;;;;;19.50;71.10;;;;;;5097370;28;19973;-65
2023/08/05 12:17:04;;;;;;;;;;;19.50;71.20;;;;;;5115271;28;19923;-66
2023/08/05 12:19:30;;;;;;;;;;;19.50;71.10;;;;;;5115153;28;19924;-66
2023/08/05 12:21:55;;;;;;;;;;;19.60;71.20;;;;;;5096998;28;19924;-66
2023/08/05 12:24:21;;;;;;;;;;;19.50;71.30;;;;;;5097187;28;20421;-65
2023/08/05 12:26:46;;;;;;;;;;;19.50;71.30;;;;;;5096903;28;19927;-65
2023/08/05 12:29:12;;;;;;;;;;;19.50;71.20;;;;;;5097052;28;20093;-66
2023/08/05 12:31:37;;;;;;;;;;;19.50;71.30;;;;;;5096792;28;20375;-66
2023/08/05 12:34:03;;;;;;;;;;;19.50;71.40;;;;;;5096554;28;19927;-66
2023/08/05 12:36:29;;;;;;;;;;;19.50;71.40;;;;;;5114978;28;19950;-66
2023/08/05 12:38:55;;;;;;;;;;;19.50;71.40;;;;;;5096982;28;19920;-65
2023/08/05 12:41:20;;;;;;;;;;;19.50;71.50;;;;;;5114755;28;20274;-66
2023/08/05 12:43:46;;;;;;;;;;;19.50;71.50;;;;;;5096481;28;19927;-66
2023/08/05 12:46:11;;;;;;;;;;;19.50;71.50;;;;;;5096480;28;19967;-65
2023/08/05 12:48:37;;;;;;;;;;;19.50;71.50;;;;;;5114730;28;19919;-65
2023/08/05 12:51:02;;;;;;;;;;;19.50;71.50;;;;;;5096637;28;20291;-66
2023/08/05 12:53:28;;;;;;;;;;;19.50;71.40;;;;;;5096377;28;19920;-66
2023/08/05 12:55:53;;;;;;;;;;;19.50;71.50;;;;;;5096552;28;19970;-66
2023/08/05 12:58:19;;;;;;;;;;;19.50;71.50;;;;;;5096208;28;20422;-65
2023/08/05 13:00:44;;;;;;;;;;;19.50;71.40;;;;;;5114298;28;19930;-66
2023/08/05 13:03:10;;;;;;;;;;;19.50;71.50;;;;;;5095814;28;19926;-66
2023/08/05 13:05:35;;;;;;;;;;;19.50;71.40;;;;;;5095099;28;20022;-66
2023/08/05 13:08:02;;;;;;;;;;;19.50;71.50;;;;;;5114500;28;19920;-65
2023/08/05 13:10:27;;;;;;;;;;;19.50;71.50;;;;;;5113488;28;19919;-67
2023/08/05 13:12:53;;;;;;;;;;;19.50;71.50;;;;;;5096300;28;19923;-66
2023/08/05 13:15:18;;;;;;;;;;;19.50;71.50;;;;;;5096140;28;19927;-66
2023/08/05 13:17:43;;;;;;;;;;;19.50;71.50;;;;;;5095818;28;19919;-66
2023/08/05 13:20:09;;;;;;;;;;;19.50;71.60;;;;;;5095670;28;19924;-66
2023/08/05 13:22:35;;;;;;;;;;;19.50;71.60;;;;;;5114043;28;19926;-66
2023/08/05 13:25:01;;;;;;;;;;;19.50;71.60;;;;;;5096049;28;19920;-66
2023/08/05 13:27:26;;;;;;;;;;;19.50;71.60;;;;;;5095604;28;19919;-66
2023/08/05 13:29:52;;;;;;;;;;;19.50;71.60;;;;;;5095929;28;20002;-71
2023/08/05 13:32:17;;;;;;;;;;;19.50;71.70;;;;;;5095586;28;19931;-66
2023/08/05 13:34:43;;;;;;;;;;;19.50;71.60;;;;;;5129984;27;19919;-65
2023/08/05 13:37:08;;;;;;;;;;;19.50;71.70;;;;;;5095369;28;19926;-66
2023/08/05 13:39:34;;;;;;;;;;;19.50;71.70;;;;;;5113905;28;19920;-66
2023/08/05 13:41:59;;;;;;;;;;;19.50;71.70;;;;;;5113347;28;19980;-66
2023/08/05 13:44:26;;;;;;;;;;;19.50;71.70;;;;;;5095354;28;19927;-66
2023/08/05 13:46:52;;;;;;;;;;;19.50;71.70;;;;;;5129671;27;19920;-65
2023/08/05 13:49:17;;;;;;;;;;;19.50;71.70;;;;;;5113590;28;20322;-66
2023/08/05 13:51:43;;;;;;;;;;;19.50;71.70;;;;;;5095366;28;19920;-66
2023/08/05 13:54:10;;;;;;;;;;;19.50;71.70;;;;;;5095190;28;19966;-66
2023/08/05 13:56:36;;;;;;;;;;;19.50;71.70;;;;;;5095429;28;19958;-66
2023/08/05 13:59:02;;;;;;;;;;;19.50;71.70;;;;;;5095123;28;19962;-66
2023/08/05 14:01:27;;;;;;;;;;;19.50;71.70;;;;;;5113182;28;19977;-65
2023/08/05 14:03:53;;;;;;;;;;;19.50;71.70;;;;;;5113313;28;19924;-65
2023/08/05 14:06:18;;;;;;;;;;;19.50;71.70;;;;;;5095269;28;19919;-66
2023/08/05 14:08:44;;;;;;;;;;;19.50;71.70;;;;;;5113168;28;19958;-66
2023/08/05 14:11:09;;;;;;;;;;;19.50;71.70;;;;;;5094576;28;19931;-66
2023/08/05 14:13:35;;;;;;;;;;;19.50;71.70;;;;;;5095100;28;19923;-66